createdAt,value
2022-10-30T00:00:44.256Z,14.29
2022-10-30T00:03:13.306Z,14.33
2022-10-30T00:05:48.686Z,14.37
2022-10-30T00:08:17.537Z,14.33
2022-10-30T00:10:45.194Z,14.32
2022-10-30T00:13:13.382Z,14.27
2022-10-30T00:15:40.147Z,14.18
2022-10-30T00:18:06.757Z,14.21
2022-10-30T00:20:36.197Z,14.31
2022-10-30T00:23:02.766Z,14.31
2022-10-30T00:25:29.516Z,14.29
2022-10-30T00:27:56.087Z,14.18
2022-10-30T00:30:22.710Z,14.11
2022-10-30T00:32:49.350Z,13.94
2022-10-30T00:35:16.364Z,13.94
2022-10-30T00:37:42.959Z,13.98
2022-10-30T00:40:16.400Z,14.08
2022-10-30T00:42:43.525Z,14.10
2022-10-30T00:45:15.979Z,14.13
2022-10-30T00:47:52.508Z,14.17
2022-10-30T00:53:05.543Z,14.07
2022-10-30T00:55:37.889Z,14.02
2022-10-30T00:58:08.516Z,14.02
2022-10-30T01:00:37.116Z,14.02
2022-10-30T01:03:04.578Z,14.05
2022-10-30T01:05:33.650Z,14.11
2022-10-30T01:08:00.530Z,14.15
2022-10-30T01:10:27.524Z,14.13
2022-10-30T01:12:56.876Z,14.11
2022-10-30T01:15:29.223Z,14.14
2022-10-30T01:18:21.923Z,14.17
2022-10-30T01:21:22.812Z,14.20
2022-10-30T01:24:26.413Z,14.29
2022-10-30T01:27:09.008Z,14.37
2022-10-30T01:29:38.260Z,14.37
2022-10-30T01:32:40.634Z,14.29
2022-10-30T01:35:28.878Z,14.32
2022-10-30T01:38:03.684Z,14.33
2022-10-30T01:40:30.324Z,14.38
2022-10-30T01:42:58.241Z,14.41
2022-10-30T01:45:57.548Z,14.43
2022-10-30T01:48:43.573Z,14.45
2022-10-30T01:51:47.846Z,14.41
2022-10-30T01:54:33.033Z,14.32
2022-10-30T01:57:15.989Z,14.22
2022-10-30T02:00:02.332Z,14.25
2022-10-30T02:02:40.645Z,14.10
2022-10-30T02:05:13.910Z,13.93
2022-10-30T02:07:40.502Z,13.86
2022-10-30T02:10:11.966Z,13.62
2022-10-30T02:12:39.329Z,13.47
2022-10-30T02:15:06.315Z,13.27
2022-10-30T02:17:32.927Z,13.26
2022-10-30T02:19:59.484Z,13.16
2022-10-30T02:22:26.442Z,13.13
2022-10-30T02:24:53.082Z,13.06
2022-10-30T02:27:23.699Z,12.94
2022-10-30T02:29:50.307Z,12.84
2022-10-30T02:32:16.922Z,12.90
2022-10-30T02:34:44.296Z,13.02
2022-10-30T02:37:11.035Z,12.99
2022-10-30T02:39:39.128Z,12.92
2022-10-30T02:42:05.847Z,12.95
2022-10-30T02:44:32.462Z,12.95
2022-10-30T02:46:59.582Z,12.85
2022-10-30T02:49:26.730Z,12.81
2022-10-30T02:51:53.377Z,12.76
2022-10-30T02:54:19.972Z,12.73
2022-10-30T02:56:47.825Z,12.66
2022-10-30T02:59:14.653Z,12.57
2022-10-30T03:01:41.378Z,12.51
2022-10-30T03:04:08.772Z,12.37
2022-10-30T03:06:35.427Z,12.29
2022-10-30T03:09:02.062Z,12.24
2022-10-30T03:11:28.730Z,12.20
2022-10-30T03:13:55.516Z,12.19
2022-10-30T03:16:24.305Z,12.16
2022-10-30T03:18:52.394Z,12.20
2022-10-30T03:21:22.557Z,12.13
2022-10-30T03:23:50.608Z,12.10
2022-10-30T03:26:18.928Z,12.10
2022-10-30T03:28:51.539Z,11.88
2022-10-30T03:31:19.922Z,11.94
2022-10-30T03:33:51.164Z,12.02
2022-10-30T03:36:18.357Z,12.10
2022-10-30T03:38:44.914Z,12.15
2022-10-30T03:41:15.327Z,12.16
2022-10-30T03:43:43.459Z,12.13
2022-10-30T03:46:11.298Z,12.07
2022-10-30T03:48:38.402Z,12.08
2022-10-30T03:51:05.146Z,12.01
2022-10-30T03:53:31.794Z,12.01
2022-10-30T03:56:01.200Z,12.04
2022-10-30T03:58:35.542Z,12.10
2022-10-30T04:01:07.611Z,12.08
2022-10-30T04:03:38.224Z,12.10
2022-10-30T04:06:06.935Z,12.06
2022-10-30T04:08:33.744Z,11.96
2022-10-30T04:11:01.809Z,11.93
2022-10-30T04:13:28.533Z,11.99
2022-10-30T04:15:58.040Z,11.99
2022-10-30T04:18:26.128Z,12.02
2022-10-30T04:20:53.836Z,12.04
2022-10-30T04:23:21.753Z,12.06
2022-10-30T04:25:48.926Z,11.91
2022-10-30T04:28:15.921Z,11.90
2022-10-30T04:30:43.214Z,12.02
2022-10-30T04:33:13.846Z,12.11
2022-10-30T04:35:41.471Z,12.13
2022-10-30T04:38:14.355Z,12.02
2022-10-30T04:40:43.623Z,11.91
2022-10-30T04:43:12.928Z,11.90
2022-10-30T04:45:40.735Z,11.89
2022-10-30T04:48:15.170Z,11.87
2022-10-30T04:50:43.812Z,11.86
2022-10-30T04:53:19.089Z,11.80
2022-10-30T04:55:48.094Z,11.65
2022-10-30T04:58:15.235Z,11.68
2022-10-30T05:00:46.032Z,11.75
2022-10-30T05:03:24.780Z,11.76
2022-10-30T05:06:04.768Z,11.68
2022-10-30T05:08:32.015Z,11.57
2022-10-30T05:11:04.932Z,11.52
2022-10-30T05:13:32.322Z,11.58
2022-10-30T05:15:58.939Z,11.52
2022-10-30T05:18:25.644Z,11.51
2022-10-30T05:20:52.577Z,11.47
2022-10-30T05:23:19.179Z,11.45
2022-10-30T05:25:45.804Z,11.48
2022-10-30T05:28:14.520Z,11.48
2022-10-30T05:30:46.064Z,11.46
2022-10-30T05:33:28.037Z,11.44
2022-10-30T05:35:54.690Z,11.42
2022-10-30T05:38:21.277Z,11.37
2022-10-30T05:40:48.303Z,11.28
2022-10-30T05:43:14.966Z,11.22
2022-10-30T05:45:41.622Z,11.19
2022-10-30T05:48:08.363Z,11.08
2022-10-30T05:50:41.801Z,11.02
2022-10-30T05:53:28.654Z,10.94
2022-10-30T05:55:58.033Z,10.96
2022-10-30T05:58:25.680Z,10.90
2022-10-30T06:00:54.662Z,10.81
2022-10-30T06:03:36.860Z,10.81
2022-10-30T06:06:03.739Z,10.72
2022-10-30T06:08:30.977Z,10.70
2022-10-30T06:11:00.267Z,10.69
2022-10-30T06:13:34.278Z,10.72
2022-10-30T06:16:11.475Z,10.65
2022-10-30T06:18:56.260Z,10.64
2022-10-30T06:21:23.806Z,10.67
2022-10-30T06:23:59.000Z,10.75
2022-10-30T06:26:43.015Z,10.81
2022-10-30T06:29:13.252Z,10.81
2022-10-30T06:31:40.889Z,10.71
2022-10-30T06:34:07.494Z,10.60
2022-10-30T06:36:36.684Z,10.60
2022-10-30T06:39:04.244Z,10.76
2022-10-30T06:41:38.363Z,10.88
2022-10-30T06:44:18.622Z,10.89
2022-10-30T06:46:45.269Z,10.95
2022-10-30T06:49:12.234Z,11.12
2022-10-30T06:51:39.646Z,11.19
2022-10-30T06:54:06.408Z,11.17
2022-10-30T06:56:38.899Z,10.97
2022-10-30T06:59:29.871Z,10.81
2022-10-30T07:02:16.936Z,10.92
2022-10-30T07:04:47.738Z,10.95
2022-10-30T07:07:15.149Z,11.01
2022-10-30T07:09:42.295Z,11.01
2022-10-30T07:12:09.361Z,11.06
2022-10-30T07:14:57.479Z,11.22
2022-10-30T07:17:57.456Z,11.23
2022-10-30T07:20:27.285Z,11.26
2022-10-30T07:22:54.028Z,11.34
2022-10-30T07:25:21.105Z,11.48
2022-10-30T07:27:57.217Z,11.58
2022-10-30T07:30:33.544Z,11.69
2022-10-30T07:33:29.177Z,11.95
2022-10-30T07:36:02.002Z,12.23
2022-10-30T07:39:03.773Z,12.86
2022-10-30T07:41:34.877Z,13.17
2022-10-30T07:44:20.276Z,13.25
2022-10-30T07:46:52.951Z,13.33
2022-10-30T07:49:38.252Z,13.52
2022-10-30T07:52:06.382Z,13.74
2022-10-30T07:54:33.757Z,14.25
2022-10-30T07:57:14.163Z,14.73
2022-10-30T08:00:05.987Z,14.97
2022-10-30T08:02:51.965Z,15.02
2022-10-30T08:05:30.024Z,15.29
2022-10-30T08:08:05.939Z,15.72
2022-10-30T08:10:32.879Z,15.86
2022-10-30T08:12:59.522Z,16.04
2022-10-30T08:15:26.520Z,16.27
2022-10-30T08:17:54.168Z,16.40
2022-10-30T08:20:24.449Z,16.51
2022-10-30T08:22:55.609Z,16.54
2022-10-30T08:25:28.843Z,16.74
2022-10-30T08:28:03.618Z,16.85
2022-10-30T08:30:36.470Z,16.92
2022-10-30T08:33:06.971Z,17.11
2022-10-30T08:35:54.502Z,17.41
2022-10-30T08:38:21.114Z,17.54
2022-10-30T08:40:57.745Z,17.62
2022-10-30T08:43:25.372Z,17.61
2022-10-30T08:45:52.283Z,17.70
2022-10-30T08:48:21.278Z,17.74
2022-10-30T08:50:47.888Z,17.66
2022-10-30T08:53:20.508Z,17.81
2022-10-30T08:55:48.115Z,17.93
2022-10-30T08:58:26.360Z,18.13
2022-10-30T09:00:55.993Z,18.24
2022-10-30T09:03:55.693Z,18.39
2022-10-30T09:06:48.501Z,18.55
2022-10-30T09:09:33.680Z,18.67
2022-10-30T09:12:02.597Z,18.72
2022-10-30T09:14:34.183Z,18.69
2022-10-30T09:17:00.777Z,18.74
2022-10-30T09:19:28.904Z,19.02
2022-10-30T09:21:57.681Z,19.13
2022-10-30T09:24:24.364Z,19.19
2022-10-30T09:26:51.076Z,18.96
2022-10-30T09:29:23.456Z,19.03
2022-10-30T09:31:56.053Z,19.08
2022-10-30T09:34:24.882Z,19.34
2022-10-30T09:37:01.911Z,19.51
2022-10-30T09:39:30.971Z,19.67
2022-10-30T09:42:20.295Z,19.68
2022-10-30T09:45:29.662Z,19.75
2022-10-30T09:48:11.315Z,19.76
2022-10-30T09:51:23.276Z,19.87
2022-10-30T09:54:15.381Z,20.02
2022-10-30T09:56:50.460Z,20.00
2022-10-30T09:59:33.321Z,20.17
2022-10-30T10:02:28.698Z,20.35
2022-10-30T10:05:11.670Z,20.37
2022-10-30T10:08:10.179Z,20.13
2022-10-30T10:11:04.273Z,20.13
2022-10-30T10:13:38.468Z,20.36
2022-10-30T10:16:22.758Z,20.73
2022-10-30T10:18:58.393Z,20.78
2022-10-30T10:21:27.369Z,20.67
2022-10-30T10:24:01.458Z,20.51
2022-10-30T10:26:40.842Z,20.50
2022-10-30T10:29:15.143Z,20.37
2022-10-30T10:32:03.289Z,20.35
2022-10-30T10:34:45.871Z,20.38
2022-10-30T10:37:41.571Z,20.45
2022-10-30T10:40:23.533Z,20.49
2022-10-30T10:43:14.808Z,20.47
2022-10-30T10:45:46.857Z,20.42
2022-10-30T10:48:36.935Z,20.49
2022-10-30T10:51:20.820Z,20.60
2022-10-30T10:54:01.812Z,20.63
2022-10-30T10:56:34.152Z,20.59
2022-10-30T10:59:04.886Z,20.62
2022-10-30T11:01:40.381Z,20.67
2022-10-30T11:04:24.181Z,20.77
2022-10-30T11:06:54.167Z,20.78
2022-10-30T11:09:23.323Z,20.77
2022-10-30T11:11:52.482Z,20.89
2022-10-30T11:14:22.043Z,20.91
2022-10-30T11:17:19.479Z,21.01
2022-10-30T11:19:51.802Z,20.99
2022-10-30T11:22:25.730Z,21.09
2022-10-30T11:24:52.359Z,21.11
2022-10-30T11:27:24.917Z,21.02
2022-10-30T11:30:05.990Z,21.09
2022-10-30T11:32:34.350Z,20.65
2022-10-30T11:35:08.330Z,20.34
2022-10-30T11:37:37.189Z,20.12
2022-10-30T11:40:17.423Z,19.95
2022-10-30T11:42:48.395Z,19.97
2022-10-30T11:45:18.926Z,19.88
2022-10-30T11:47:47.128Z,19.82
2022-10-30T11:50:21.143Z,19.83
2022-10-30T11:52:51.138Z,19.92
2022-10-30T11:55:23.226Z,20.03
2022-10-30T11:57:57.423Z,20.16
2022-10-30T12:00:27.445Z,20.28
2022-10-30T12:02:57.076Z,20.42
2022-10-30T12:05:27.153Z,20.46
2022-10-30T12:08:10.863Z,20.65
2022-10-30T12:10:50.558Z,20.65
2022-10-30T12:13:20.327Z,20.71
2022-10-30T12:15:49.891Z,20.86
2022-10-30T12:20:57.950Z,21.02
2022-10-30T12:23:28.385Z,21.23
2022-10-30T12:25:59.006Z,21.28
2022-10-30T12:28:28.510Z,21.33
2022-10-30T12:31:00.861Z,21.50
2022-10-30T12:33:50.971Z,21.84
2022-10-30T12:36:22.555Z,21.88
2022-10-30T12:38:57.650Z,21.90
2022-10-30T12:41:31.908Z,21.77
2022-10-30T12:44:08.295Z,21.66
2022-10-30T12:46:49.969Z,21.39
2022-10-30T12:49:28.695Z,21.39
2022-10-30T12:52:09.171Z,21.25
2022-10-30T12:55:01.178Z,21.13
2022-10-30T12:57:33.521Z,21.06
2022-10-30T13:00:04.838Z,21.03
2022-10-30T13:03:05.697Z,21.00
2022-10-30T13:06:02.367Z,21.01
2022-10-30T13:08:34.690Z,21.02
2022-10-30T13:11:04.491Z,21.00
2022-10-30T13:13:39.383Z,20.86
2022-10-30T13:16:36.115Z,20.82
2022-10-30T13:19:03.748Z,20.78
2022-10-30T13:21:39.603Z,20.71
2022-10-30T13:24:12.220Z,20.67
2022-10-30T13:26:53.730Z,20.55
2022-10-30T13:29:45.150Z,20.48
2022-10-30T13:32:23.950Z,20.45
2022-10-30T13:35:01.713Z,20.37
2022-10-30T13:37:36.468Z,20.41
2022-10-30T13:40:17.281Z,20.35
2022-10-30T13:43:01.727Z,20.27
2022-10-30T13:45:30.981Z,20.25
2022-10-30T13:48:26.697Z,20.24
2022-10-30T13:51:18.286Z,20.25
2022-10-30T13:53:48.746Z,20.20
2022-10-30T13:56:18.962Z,20.15
2022-10-30T13:59:23.608Z,20.02
2022-10-30T14:02:04.001Z,20.04
2022-10-30T14:04:39.352Z,20.02
2022-10-30T14:07:28.270Z,20.00
2022-10-30T14:10:20.043Z,19.97
2022-10-30T14:12:46.637Z,20.04
2022-10-30T14:15:26.310Z,20.16
2022-10-30T14:18:11.713Z,20.29
2022-10-30T14:20:46.374Z,20.36
2022-10-30T14:23:33.964Z,20.50
2022-10-30T14:26:06.419Z,20.58
2022-10-30T14:28:35.913Z,20.59
2022-10-30T14:31:03.569Z,20.62
2022-10-30T14:33:46.733Z,20.63
2022-10-30T14:36:18.144Z,20.59
2022-10-30T14:39:21.474Z,20.49
2022-10-30T14:42:13.691Z,20.28
2022-10-30T14:44:58.890Z,20.11
2022-10-30T14:47:44.360Z,19.92
2022-10-30T14:50:20.094Z,19.75
2022-10-30T14:52:49.508Z,19.58
2022-10-30T14:55:28.284Z,19.45
2022-10-30T14:58:03.955Z,19.39
2022-10-30T15:00:39.628Z,19.28
2022-10-30T15:03:48.812Z,19.05
2022-10-30T15:06:43.556Z,18.87
2022-10-30T15:09:22.520Z,18.64
2022-10-30T15:12:22.365Z,18.36
2022-10-30T15:14:59.394Z,18.06
2022-10-30T15:17:40.080Z,17.79
2022-10-30T15:20:14.494Z,17.58
2022-10-30T15:22:42.062Z,17.42
2022-10-30T15:25:20.129Z,17.13
2022-10-30T15:27:51.673Z,17.13
2022-10-30T15:30:24.047Z,17.00
2022-10-30T15:32:51.316Z,16.87
2022-10-30T15:35:20.749Z,16.66
2022-10-30T15:38:06.465Z,16.46
2022-10-30T15:40:39.519Z,16.32
2022-10-30T15:43:10.610Z,16.15
2022-10-30T15:45:47.588Z,16.02
2022-10-30T15:48:28.038Z,15.90
2022-10-30T15:51:03.949Z,15.73
2022-10-30T15:53:43.726Z,15.60
2022-10-30T15:56:33.679Z,15.52
2022-10-30T15:59:04.952Z,15.38
2022-10-30T16:01:42.755Z,15.25
2022-10-30T16:04:16.702Z,15.14
2022-10-30T16:07:00.916Z,15.03
2022-10-30T16:09:28.730Z,14.88
2022-10-30T16:11:58.935Z,14.73
2022-10-30T16:14:28.298Z,14.60
2022-10-30T16:16:55.266Z,14.53
2022-10-30T16:19:31.263Z,14.40
2022-10-30T16:21:58.762Z,14.31
2022-10-30T16:24:34.293Z,14.28
2022-10-30T16:27:18.386Z,14.12
2022-10-30T16:29:53.998Z,14.08
2022-10-30T16:32:29.260Z,14.00
2022-10-30T16:35:00.903Z,14.09
2022-10-30T16:37:36.681Z,14.17
2022-10-30T16:40:12.400Z,14.09
2022-10-30T16:42:39.671Z,13.92
2022-10-30T16:45:12.419Z,13.76
2022-10-30T16:47:43.460Z,13.69
2022-10-30T16:50:14.562Z,13.66
2022-10-30T16:52:42.573Z,13.53
2022-10-30T16:55:20.965Z,13.52
2022-10-30T16:57:59.402Z,13.47
2022-10-30T17:00:31.545Z,13.35
2022-10-30T17:03:08.210Z,13.34
2022-10-30T17:05:36.923Z,13.43
2022-10-30T17:08:09.124Z,13.22
2022-10-30T17:10:43.539Z,13.12
2022-10-30T17:13:29.097Z,13.02
2022-10-30T17:15:56.329Z,12.96
2022-10-30T17:18:31.403Z,12.77
2022-10-30T17:21:22.735Z,12.68
2022-10-30T17:23:52.280Z,12.54
2022-10-30T17:26:19.530Z,12.52
2022-10-30T17:28:47.269Z,12.51
2022-10-30T17:31:50.090Z,12.51
2022-10-30T17:34:18.939Z,12.43
2022-10-30T17:36:47.266Z,12.44
2022-10-30T17:39:14.435Z,12.47
2022-10-30T17:41:42.358Z,12.37
2022-10-30T17:44:18.614Z,12.25
2022-10-30T17:46:45.296Z,12.15
2022-10-30T17:49:25.198Z,12.16
2022-10-30T17:51:51.829Z,12.01
2022-10-30T17:54:18.472Z,11.98
2022-10-30T17:56:45.092Z,11.95
2022-10-30T17:59:11.681Z,11.79
2022-10-30T18:01:38.479Z,11.72
2022-10-30T18:04:15.046Z,11.73
2022-10-30T18:06:44.617Z,11.69
2022-10-30T18:09:12.678Z,11.63
2022-10-30T18:11:39.602Z,11.58
2022-10-30T18:14:06.499Z,11.59
2022-10-30T18:16:33.182Z,11.70
2022-10-30T18:18:59.891Z,11.60
2022-10-30T18:21:27.570Z,11.42
2022-10-30T18:23:55.263Z,11.34
2022-10-30T18:26:24.517Z,11.35
2022-10-30T18:28:51.563Z,11.29
2022-10-30T18:31:20.996Z,11.18
2022-10-30T18:33:48.324Z,11.11
2022-10-30T18:36:21.161Z,11.09
2022-10-30T18:38:48.259Z,11.12
2022-10-30T18:41:36.667Z,11.01
2022-10-30T18:44:03.594Z,11.01
2022-10-30T18:46:32.608Z,11.06
2022-10-30T18:48:59.385Z,11.12
2022-10-30T18:51:27.628Z,10.99
2022-10-30T18:53:56.750Z,10.85
2022-10-30T18:56:26.617Z,10.84
2022-10-30T18:58:56.702Z,10.82
2022-10-30T19:01:28.471Z,10.87
2022-10-30T19:03:55.187Z,10.75
2022-10-30T19:06:23.838Z,10.64
2022-10-30T19:08:50.537Z,10.59
2022-10-30T19:11:24.253Z,10.63
2022-10-30T19:13:53.436Z,10.60
2022-10-30T19:16:21.365Z,10.68
2022-10-30T19:18:48.601Z,10.73
2022-10-30T19:21:23.031Z,10.66
2022-10-30T19:23:49.823Z,10.57
2022-10-30T19:26:17.520Z,10.51
2022-10-30T19:28:45.458Z,10.48
2022-10-30T19:31:17.657Z,10.46
2022-10-30T19:33:44.884Z,10.43
2022-10-30T19:36:31.032Z,10.40
2022-10-30T19:38:57.896Z,10.38
2022-10-30T19:41:24.865Z,10.39
2022-10-30T19:43:52.582Z,10.43
2022-10-30T19:46:19.807Z,10.36
2022-10-30T19:49:01.855Z,10.40
2022-10-30T19:51:28.880Z,10.40
2022-10-30T19:53:56.033Z,10.33
2022-10-30T19:56:22.777Z,10.45
2022-10-30T19:58:49.786Z,10.50
2022-10-30T20:01:16.920Z,10.51
2022-10-30T20:03:43.870Z,10.52
2022-10-30T20:06:14.142Z,10.49
2022-10-30T20:08:40.845Z,10.61
2022-10-30T20:11:07.491Z,10.64
2022-10-30T20:13:34.210Z,10.56
2022-10-30T20:16:02.890Z,10.55
2022-10-30T20:18:31.660Z,10.52
2022-10-30T20:21:00.982Z,10.53
2022-10-30T20:23:28.536Z,10.36
2022-10-30T20:25:59.995Z,10.41
2022-10-30T20:28:41.640Z,10.56
2022-10-30T20:31:10.731Z,10.57
2022-10-30T20:33:37.474Z,10.55
2022-10-30T20:36:04.713Z,10.52
2022-10-30T20:38:33.426Z,10.59
2022-10-30T20:41:02.718Z,10.59
2022-10-30T20:43:39.269Z,10.62
2022-10-30T20:46:10.937Z,10.69
2022-10-30T20:48:39.281Z,10.62
2022-10-30T20:51:06.806Z,10.59
2022-10-30T20:53:34.274Z,10.54
2022-10-30T20:56:00.959Z,10.57
2022-10-30T20:58:28.013Z,10.66
2022-10-30T21:00:58.019Z,10.76
2022-10-30T21:03:26.055Z,10.81
2022-10-30T21:06:01.643Z,10.97
2022-10-30T21:08:33.932Z,11.01
2022-10-30T21:11:02.341Z,11.08
2022-10-30T21:13:29.113Z,11.11
2022-10-30T21:16:01.003Z,11.14
2022-10-30T21:18:27.654Z,11.14
2022-10-30T21:20:54.239Z,11.24
2022-10-30T21:23:20.809Z,11.31
2022-10-30T21:25:47.407Z,11.37
2022-10-30T21:28:14.043Z,11.41
2022-10-30T21:30:40.663Z,11.45
2022-10-30T21:33:07.227Z,11.54
2022-10-30T21:35:33.873Z,11.63
2022-10-30T21:38:01.567Z,11.72
2022-10-30T21:40:28.210Z,11.68
2022-10-30T21:42:58.472Z,11.61
2022-10-30T21:45:28.028Z,11.52
2022-10-30T21:47:54.604Z,11.35
2022-10-30T21:50:21.164Z,11.15
2022-10-30T21:52:47.752Z,10.96
2022-10-30T21:55:14.334Z,10.85
2022-10-30T21:57:40.942Z,10.78
2022-10-30T22:00:08.141Z,10.73
2022-10-30T22:02:36.002Z,10.74
2022-10-30T22:05:02.614Z,10.74
2022-10-30T22:07:29.236Z,10.71
2022-10-30T22:09:55.883Z,10.63
2022-10-30T22:12:22.494Z,10.61
2022-10-30T22:14:49.073Z,10.63
2022-10-30T22:17:15.806Z,10.72
2022-10-30T22:19:42.392Z,10.86
2022-10-30T22:22:09.270Z,10.99
2022-10-30T22:24:35.883Z,11.24
2022-10-30T22:27:02.595Z,11.38
2022-10-30T22:29:29.163Z,11.37
2022-10-30T22:31:55.914Z,11.33
2022-10-30T22:34:22.481Z,11.23
2022-10-30T22:36:49.086Z,11.07
2022-10-30T22:39:16.002Z,10.96
2022-10-30T22:41:42.616Z,10.89
2022-10-30T22:44:13.457Z,10.86
2022-10-30T22:46:40.749Z,10.90
2022-10-30T22:49:07.972Z,10.95
2022-10-30T22:51:37.253Z,10.92
2022-10-30T22:54:06.182Z,10.72
2022-10-30T22:56:34.800Z,10.57
2022-10-30T22:59:03.924Z,10.51
2022-10-30T23:01:32.881Z,10.35
2022-10-30T23:04:01.312Z,10.22
2022-10-30T23:06:30.161Z,10.11
2022-10-30T23:08:58.676Z,10.01
2022-10-30T23:11:26.451Z,9.96
2022-10-30T23:13:53.111Z,9.93
2022-10-30T23:16:22.079Z,9.99
2022-10-30T23:18:49.643Z,9.88
2022-10-30T23:21:19.840Z,9.81
2022-10-30T23:23:46.713Z,9.79
2022-10-30T23:26:16.604Z,9.67
2022-10-30T23:28:44.550Z,9.65
2022-10-30T23:31:29.058Z,9.70
2022-10-30T23:34:00.370Z,9.77
2022-10-30T23:36:27.377Z,9.69
2022-10-30T23:39:00.057Z,9.63
2022-10-30T23:41:29.387Z,9.55
2022-10-30T23:43:58.006Z,9.53
2022-10-30T23:46:25.157Z,9.44
2022-10-30T23:48:52.084Z,9.43
2022-10-30T23:51:19.155Z,9.41
2022-10-30T23:53:45.752Z,9.35
2022-10-30T23:56:12.927Z,9.37
2022-10-30T23:58:43.134Z,9.51
